sensor_id;sensor_type;location;lat;lon;timestamp;pressure;altitude;pressure_sealevel;temperature;humidity
43701;BME280;58809;47.984;7.964;2023-01-26T00:02:14;97678.06;;;0.64;100.00
43701;BME280;58809;47.984;7.964;2023-01-26T00:05:16;97674.91;;;0.71;100.00
43701;BME280;58809;47.984;7.964;2023-01-26T00:08:17;97666.13;;;0.85;100.00
43701;BME280;58809;47.984;7.964;2023-01-26T00:11:21;97661.09;;;0.95;100.00
43701;BME280;58809;47.984;7.964;2023-01-26T00:14:27;97664.09;;;1.02;100.00
43701;BME280;58809;47.984;7.964;2023-01-26T00:17:48;97658.69;;;1.05;100.00
43701;BME280;58809;47.984;7.964;2023-01-26T00:20:59;97652.34;;;0.96;100.00
43701;BME280;58809;47.984;7.964;2023-01-26T00:24:01;97650.81;;;0.93;100.00
43701;BME280;58809;47.984;7.964;2023-01-26T00:27:04;97647.59;;;0.90;100.00
43701;BME280;58809;47.984;7.964;2023-01-26T00:30:07;97640.09;;;0.85;100.00
43701;BME280;58809;47.984;7.964;2023-01-26T00:33:09;97637.16;;;0.90;100.00
43701;BME280;58809;47.984;7.964;2023-01-26T00:36:11;97638.19;;;0.87;100.00
43701;BME280;58809;47.984;7.964;2023-01-26T00:39:13;97641.16;;;0.83;100.00
43701;BME280;58809;47.984;7.964;2023-01-26T00:42:15;97632.81;;;0.77;100.00
43701;BME280;58809;47.984;7.964;2023-01-26T00:45:16;97631.16;;;0.76;100.00
43701;BME280;58809;47.984;7.964;2023-01-26T00:48:18;97623.56;;;0.73;100.00
43701;BME280;58809;47.984;7.964;2023-01-26T00:51:20;97623.56;;;0.73;100.00
43701;BME280;58809;47.984;7.964;2023-01-26T00:54:21;97630.13;;;0.79;100.00
43701;BME280;58809;47.984;7.964;2023-01-26T00:57:23;97629.16;;;0.80;100.00
43701;BME280;58809;47.984;7.964;2023-01-26T01:00:25;97617.97;;;0.91;100.00
43701;BME280;58809;47.984;7.964;2023-01-26T01:03:27;97624.84;;;0.92;100.00
43701;BME280;58809;47.984;7.964;2023-01-26T01:06:29;97603.81;;;0.82;100.00
43701;BME280;58809;47.984;7.964;2023-01-26T01:09:30;97603.91;;;0.93;100.00
43701;BME280;58809;47.984;7.964;2023-01-26T01:12:32;97600.91;;;0.87;100.00
43701;BME280;58809;47.984;7.964;2023-01-26T01:15:33;97607.53;;;0.91;100.00
43701;BME280;58809;47.984;7.964;2023-01-26T01:18:36;97595.84;;;0.96;100.00
43701;BME280;58809;47.984;7.964;2023-01-26T01:21:37;97602.94;;;0.94;100.00
43701;BME280;58809;47.984;7.964;2023-01-26T01:24:39;97595.03;;;0.72;100.00
43701;BME280;58809;47.984;7.964;2023-01-26T01:27:41;97589.00;;;0.58;100.00
43701;BME280;58809;47.984;7.964;2023-01-26T01:30:42;97592.47;;;0.59;100.00
43701;BME280;58809;47.984;7.964;2023-01-26T01:33:44;97590.88;;;0.56;100.00
43701;BME280;58809;47.984;7.964;2023-01-26T01:36:45;97579.94;;;0.64;100.00
43701;BME280;58809;47.984;7.964;2023-01-26T01:39:47;97584.81;;;0.69;100.00
43701;BME280;58809;47.984;7.964;2023-01-26T01:42:49;97575.16;;;0.58;100.00
43701;BME280;58809;47.984;7.964;2023-01-26T01:45:51;97577.22;;;0.66;100.00
43701;BME280;58809;47.984;7.964;2023-01-26T01:48:58;97582.59;;;0.75;100.00
43701;BME280;58809;47.984;7.964;2023-01-26T01:52:10;97573.00;;;0.76;100.00
43701;BME280;58809;47.984;7.964;2023-01-26T01:55:15;97569.59;;;0.75;100.00
43701;BME280;58809;47.984;7.964;2023-01-26T01:58:17;97578.22;;;0.76;100.00
43701;BME280;58809;47.984;7.964;2023-01-26T02:01:20;97568.63;;;0.76;100.00
43701;BME280;58809;47.984;7.964;2023-01-26T02:04:22;97570.66;;;0.84;100.00
43701;BME280;58809;47.984;7.964;2023-01-26T02:07:25;97564.13;;;0.79;100.00
43701;BME280;58809;47.984;7.964;2023-01-26T02:10:29;97572.84;;;0.66;100.00
43701;BME280;58809;47.984;7.964;2023-01-26T02:13:32;97571.53;;;0.61;100.00
43701;BME280;58809;47.984;7.964;2023-01-26T02:16:36;97577.72;;;0.71;100.00
43701;BME280;58809;47.984;7.964;2023-01-26T02:19:47;97574.22;;;0.59;100.00
43701;BME280;58809;47.984;7.964;2023-01-26T02:22:58;97573.38;;;0.58;100.00
43701;BME280;58809;47.984;7.964;2023-01-26T02:26:07;97570.78;;;0.58;100.00
43701;BME280;58809;47.984;7.964;2023-01-26T02:29:12;97558.25;;;0.64;100.00
43701;BME280;58809;47.984;7.964;2023-01-26T02:32:16;97562.19;;;0.69;100.00
43701;BME280;58809;47.984;7.964;2023-01-26T02:35:19;97556.16;;;0.69;100.00
43701;BME280;58809;47.984;7.964;2023-01-26T02:38:21;97556.09;;;0.57;100.00
43701;BME280;58809;47.984;7.964;2023-01-26T02:41:23;97551.81;;;0.56;100.00
43701;BME280;58809;47.984;7.964;2023-01-26T02:44:43;97551.78;;;0.69;100.00
43701;BME280;58809;47.984;7.964;2023-01-26T02:47:45;97531.72;;;0.58;100.00
43701;BME280;58809;47.984;7.964;2023-01-26T02:50:47;97527.72;;;0.66;100.00
43701;BME280;58809;47.984;7.964;2023-01-26T02:53:48;97531.00;;;0.56;100.00
43701;BME280;58809;47.984;7.964;2023-01-26T02:56:50;97529.16;;;0.46;100.00
43701;BME280;58809;47.984;7.964;2023-01-26T02:59:52;97529.75;;;0.49;100.00
43701;BME280;58809;47.984;7.964;2023-01-26T03:02:58;97528.34;;;0.45;100.00
43701;BME280;58809;47.984;7.964;2023-01-26T03:06:03;97529.00;;;0.36;100.00
43701;BME280;58809;47.984;7.964;2023-01-26T03:09:06;97528.34;;;0.45;100.00
43701;BME280;58809;47.984;7.964;2023-01-26T03:12:07;97528.63;;;0.53;100.00
43701;BME280;58809;47.984;7.964;2023-01-26T03:15:09;97530.78;;;0.60;100.00
43701;BME280;58809;47.984;7.964;2023-01-26T03:18:29;97530.28;;;0.54;100.00
43701;BME280;58809;47.984;7.964;2023-01-26T03:21:51;97520.47;;;0.58;100.00
43701;BME280;58809;47.984;7.964;2023-01-26T03:25:11;97515.16;;;0.60;100.00
43701;BME280;58809;47.984;7.964;2023-01-26T03:28:32;97517.31;;;0.66;100.00
43701;BME280;58809;47.984;7.964;2023-01-26T03:31:34;97514.03;;;0.51;100.00
43701;BME280;58809;47.984;7.964;2023-01-26T03:34:36;97509.19;;;0.46;100.00
43701;BME280;58809;47.984;7.964;2023-01-26T03:37:38;97525.63;;;0.47;100.00
43701;BME280;58809;47.984;7.964;2023-01-26T03:40:48;97527.09;;;0.38;100.00
43701;BME280;58809;47.984;7.964;2023-01-26T03:44:09;97529.00;;;0.36;100.00
43701;BME280;58809;47.984;7.964;2023-01-26T03:47:31;97522.41;;;0.43;100.00
43701;BME280;58809;47.984;7.964;2023-01-26T03:50:51;97515.03;;;0.37;100.00
43701;BME280;58809;47.984;7.964;2023-01-26T03:54:12;97520.91;;;0.28;100.00
43701;BME280;58809;47.984;7.964;2023-01-26T03:57:32;97518.06;;;0.31;100.00
43701;BME280;58809;47.984;7.964;2023-01-26T04:00:34;97518.56;;;0.36;100.00
43701;BME280;58809;47.984;7.964;2023-01-26T04:03:35;97513.78;;;0.43;100.00
43701;BME280;58809;47.984;7.964;2023-01-26T04:06:56;97519.91;;;0.42;100.00
43701;BME280;58809;47.984;7.964;2023-01-26T04:10:21;97517.03;;;0.33;100.00
43701;BME280;58809;47.984;7.964;2023-01-26T04:13:23;97517.34;;;0.29;100.00
43701;BME280;58809;47.984;7.964;2023-01-26T04:16:51;97518.31;;;0.28;100.00
43701;BME280;58809;47.984;7.964;2023-01-26T04:20:11;97511.72;;;0.35;100.00
43701;BME280;58809;47.984;7.964;2023-01-26T04:23:31;97511.88;;;0.45;100.00
43701;BME280;58809;47.984;7.964;2023-01-26T04:26:33;97496.72;;;0.38;100.00
43701;BME280;58809;47.984;7.964;2023-01-26T04:29:41;97492.75;;;0.33;100.00
43701;BME280;58809;47.984;7.964;2023-01-26T04:32:43;97494.38;;;0.23;100.00
43701;BME280;58809;47.984;7.964;2023-01-26T04:35:47;97487.22;;;0.13;100.00
43701;BME280;58809;47.984;7.964;2023-01-26T04:38:50;97482.72;;;0.15;100.00
43701;BME280;58809;47.984;7.964;2023-01-26T04:41:53;97486.16;;;0.16;100.00
43701;BME280;58809;47.984;7.964;2023-01-26T04:44:55;97484.81;;;0.10;100.00
43701;BME280;58809;47.984;7.964;2023-01-26T04:47:56;97477.47;;;0.04;100.00
43701;BME280;58809;47.984;7.964;2023-01-26T04:51:02;97471.72;;;0.12;100.00
43701;BME280;58809;47.984;7.964;2023-01-26T04:54:04;97463.09;;;0.11;100.00
43701;BME280;58809;47.984;7.964;2023-01-26T04:57:07;97457.69;;;0.02;100.00
43701;BME280;58809;47.984;7.964;2023-01-26T05:00:10;97462.50;;;-0.05;100.00
43701;BME280;58809;47.984;7.964;2023-01-26T05:03:15;97451.91;;;-0.15;100.00
43701;BME280;58809;47.984;7.964;2023-01-26T05:06:16;97462.19;;;-0.13;100.00
43701;BME280;58809;47.984;7.964;2023-01-26T05:09:20;97454.41;;;-0.13;100.00
43701;BME280;58809;47.984;7.964;2023-01-26T05:12:33;97461.03;;;-0.09;100.00
43701;BME280;58809;47.984;7.964;2023-01-26T05:15:53;97467.63;;;-0.16;100.00
43701;BME280;58809;47.984;7.964;2023-01-26T05:19:11;97461.69;;;-0.18;100.00
43701;BME280;58809;47.984;7.964;2023-01-26T05:22:39;97462.09;;;-0.12;100.00
43701;BME280;58809;47.984;7.964;2023-01-26T05:26:03;97467.09;;;-0.09;100.00
43701;BME280;58809;47.984;7.964;2023-01-26T05:29:14;97472.72;;;-0.15;100.00
43701;BME280;58809;47.984;7.964;2023-01-26T05:32:17;97469.06;;;-0.12;100.00
43701;BME280;58809;47.984;7.964;2023-01-26T05:35:19;97470.72;;;-0.11;100.00
43701;BME280;58809;47.984;7.964;2023-01-26T05:38:21;97473.75;;;-0.17;100.00
43701;BME280;58809;47.984;7.964;2023-01-26T05:41:23;97472.94;;;-0.18;100.00
43701;BME280;58809;47.984;7.964;2023-01-26T05:44:45;97474.94;;;-0.22;100.00
43701;BME280;58809;47.984;7.964;2023-01-26T05:47:48;97476.66;;;-0.22;100.00
43701;BME280;58809;47.984;7.964;2023-01-26T05:50:50;97479.88;;;-0.06;100.00
43701;BME280;58809;47.984;7.964;2023-01-26T05:53:54;97476.22;;;-0.03;100.00
43701;BME280;58809;47.984;7.964;2023-01-26T05:56:55;97476.97;;;-0.14;100.00
43701;BME280;58809;47.984;7.964;2023-01-26T05:59:59;97476.25;;;-0.16;100.00
43701;BME280;58809;47.984;7.964;2023-01-26T06:03:01;97480.41;;;-0.13;100.00
43701;BME280;58809;47.984;7.964;2023-01-26T06:06:03;97476.22;;;-0.03;100.00
43701;BME280;58809;47.984;7.964;2023-01-26T06:09:14;97471.19;;;0.07;100.00
43701;BME280;58809;47.984;7.964;2023-01-26T06:12:35;97467.06;;;0.04;100.00
43701;BME280;58809;47.984;7.964;2023-01-26T06:15:51;97458.34;;;-0.08;100.00
43701;BME280;58809;47.984;7.964;2023-01-26T06:18:57;97467.72;;;-0.05;100.00
43701;BME280;58809;47.984;7.964;2023-01-26T06:21:59;97467.00;;;-0.07;100.00
43701;BME280;58809;47.984;7.964;2023-01-26T06:25:01;97469.19;;;-0.14;100.00
43701;BME280;58809;47.984;7.964;2023-01-26T06:28:04;97469.00;;;-0.24;100.00
43701;BME280;58809;47.984;7.964;2023-01-26T06:31:07;97465.25;;;-0.20;100.00
43701;BME280;58809;47.984;7.964;2023-01-26T06:34:09;97461.47;;;-0.15;100.00
43701;BME280;58809;47.984;7.964;2023-01-26T06:37:14;97456.06;;;-0.12;100.00
43701;BME280;58809;47.984;7.964;2023-01-26T06:40:18;97456.06;;;-0.12;100.00
43701;BME280;58809;47.984;7.964;2023-01-26T06:43:20;97447.94;;;-0.08;100.00
43701;BME280;58809;47.984;7.964;2023-01-26T06:46:21;97450.22;;;-0.03;100.00
43701;BME280;58809;47.984;7.964;2023-01-26T06:49:26;97450.41;;;-0.06;100.00
43701;BME280;58809;47.984;7.964;2023-01-26T06:52:31;97456.59;;;-0.07;100.00
43701;BME280;58809;47.984;7.964;2023-01-26T06:55:56;97460.00;;;-0.07;100.00
43701;BME280;58809;47.984;7.964;2023-01-26T06:59:06;97453.69;;;-0.15;100.00
43701;BME280;58809;47.984;7.964;2023-01-26T07:02:30;97459.84;;;-0.16;100.00
43701;BME280;58809;47.984;7.964;2023-01-26T07:05:31;97460.03;;;-0.20;100.00
43701;BME280;58809;47.984;7.964;2023-01-26T07:08:33;97462.91;;;-0.11;100.00
43701;BME280;58809;47.984;7.964;2023-01-26T07:11:35;97458.22;;;-0.06;100.00
43701;BME280;58809;47.984;7.964;2023-01-26T07:14:36;97456.38;;;-0.17;100.00
43701;BME280;58809;47.984;7.964;2023-01-26T07:17:38;97463.56;;;-0.21;100.00
43701;BME280;58809;47.984;7.964;2023-01-26T07:20:40;97469.84;;;-0.36;100.00
43701;BME280;58809;47.984;7.964;2023-01-26T07:23:41;97465.81;;;-0.40;100.00
43701;BME280;58809;47.984;7.964;2023-01-26T07:26:43;97463.06;;;-0.39;100.00
43701;BME280;58809;47.984;7.964;2023-01-26T07:29:45;97473.16;;;-0.34;100.00
43701;BME280;58809;47.984;7.964;2023-01-26T07:32:46;97466.41;;;-0.24;100.00
43701;BME280;58809;47.984;7.964;2023-01-26T07:35:51;97474.81;;;-0.20;100.00
43701;BME280;58809;47.984;7.964;2023-01-26T07:38:53;97469.00;;;-0.24;100.00
43701;BME280;58809;47.984;7.964;2023-01-26T07:41:54;97478.97;;;-0.17;100.00
43701;BME280;58809;47.984;7.964;2023-01-26T07:45:14;97472.06;;;-0.06;100.00
43701;BME280;58809;47.984;7.964;2023-01-26T07:48:22;97475.69;;;0.05;100.00
43701;BME280;58809;47.984;7.964;2023-01-26T07:51:24;97476.59;;;0.04;100.00
43701;BME280;58809;47.984;7.964;2023-01-26T07:54:26;97473.28;;;0.02;100.00
43701;BME280;58809;47.984;7.964;2023-01-26T07:57:27;97483.59;;;0.03;100.00
43701;BME280;58809;47.984;7.964;2023-01-26T08:00:29;97478.84;;;-0.03;100.00
43701;BME280;58809;47.984;7.964;2023-01-26T08:03:30;97474.56;;;-0.04;100.00
43701;BME280;58809;47.984;7.964;2023-01-26T08:06:32;97472.59;;;-0.13;100.00
43701;BME280;58809;47.984;7.964;2023-01-26T08:09:34;97474.28;;;-0.12;100.00
43701;BME280;58809;47.984;7.964;2023-01-26T08:12:36;97478.13;;;-0.05;100.00
43701;BME280;58809;47.984;7.964;2023-01-26T08:15:41;97475.72;;;-0.08;100.00
43701;BME280;58809;47.984;7.964;2023-01-26T08:18:44;97471.19;;;0.07;100.00
43701;BME280;58809;47.984;7.964;2023-01-26T08:21:46;97475.34;;;0.22;100.00
43701;BME280;58809;47.984;7.964;2023-01-26T08:24:47;97468.59;;;0.31;100.00
43701;BME280;58809;47.984;7.964;2023-01-26T08:27:49;97471.72;;;0.36;100.00
43701;BME280;58809;47.984;7.964;2023-01-26T08:30:51;97468.41;;;0.34;100.00
43701;BME280;58809;47.984;7.964;2023-01-26T08:33:52;97480.25;;;0.38;100.00
43701;BME280;58809;47.984;7.964;2023-01-26T08:36:55;97465.78;;;0.34;100.00
43701;BME280;58809;47.984;7.964;2023-01-26T08:39:57;97478.59;;;0.37;100.00
43701;BME280;58809;47.984;7.964;2023-01-26T08:43:00;97476.53;;;0.29;100.00
43701;BME280;58809;47.984;7.964;2023-01-26T08:46:02;97478.66;;;0.24;100.00
43701;BME280;58809;47.984;7.964;2023-01-26T08:49:04;97486.66;;;0.21;100.00
43701;BME280;58809;47.984;7.964;2023-01-26T08:52:05;97475.44;;;0.21;100.00
43701;BME280;58809;47.984;7.964;2023-01-26T08:55:07;97475.19;;;0.24;100.00
43701;BME280;58809;47.984;7.964;2023-01-26T08:58:09;97475.09;;;0.25;100.00
43701;BME280;58809;47.984;7.964;2023-01-26T09:01:12;97483.41;;;0.30;100.00
43701;BME280;58809;47.984;7.964;2023-01-26T09:04:14;97482.03;;;0.37;100.00
43701;BME280;58809;47.984;7.964;2023-01-26T09:07:16;97477.13;;;0.33;100.00
43701;BME280;58809;47.984;7.964;2023-01-26T09:10:17;97478.31;;;0.29;100.00
43701;BME280;58809;47.984;7.964;2023-01-26T09:13:19;97466.25;;;0.28;100.00
43701;BME280;58809;47.984;7.964;2023-01-26T09:16:22;97477.75;;;0.36;100.00
43701;BME280;58809;47.984;7.964;2023-01-26T09:19:23;97477.63;;;0.38;100.00
43701;BME280;58809;47.984;7.964;2023-01-26T09:22:25;97485.59;;;0.24;100.00
43701;BME280;58809;47.984;7.964;2023-01-26T09:25:26;97475.25;;;0.11;100.00
43701;BME280;58809;47.984;7.964;2023-01-26T09:28:28;97494.56;;;0.19;100.00
43701;BME280;58809;47.984;7.964;2023-01-26T09:31:29;97495.03;;;0.37;100.00
43701;BME280;58809;47.984;7.964;2023-01-26T09:34:32;97491.38;;;0.40;100.00
43701;BME280;58809;47.984;7.964;2023-01-26T09:37:36;97496.25;;;0.45;100.00
43701;BME280;58809;47.984;7.964;2023-01-26T09:43:54;97493.03;;;0.65;100.00
43701;BME280;58809;47.984;7.964;2023-01-26T09:47:13;97492.50;;;0.84;100.00
43701;BME280;58809;47.984;7.964;2023-01-26T09:50:20;97491.97;;;0.92;100.00
43701;BME280;58809;47.984;7.964;2023-01-26T09:53:26;97490.41;;;0.89;100.00
43701;BME280;58809;47.984;7.964;2023-01-26T09:56:29;97493.25;;;0.86;100.00
43701;BME280;58809;47.984;7.964;2023-01-26T10:06:23;97490.16;;;0.81;100.00
43701;BME280;58809;47.984;7.964;2023-01-26T10:09:43;97479.09;;;0.66;100.00
43701;BME280;58809;47.984;7.964;2023-01-26T10:12:48;97477.88;;;0.59;100.00
43701;BME280;58809;47.984;7.964;2023-01-26T10:15:57;97482.63;;;0.65;100.00
43701;BME280;58809;47.984;7.964;2023-01-26T10:19:05;97487.44;;;0.58;100.00
43701;BME280;58809;47.984;7.964;2023-01-26T10:22:16;97488.41;;;0.57;100.00
43701;BME280;58809;47.984;7.964;2023-01-26T10:25:28;97480.09;;;0.52;100.00
43701;BME280;58809;47.984;7.964;2023-01-26T10:28:34;97485.03;;;0.44;100.00
43701;BME280;58809;47.984;7.964;2023-01-26T10:31:36;97479.06;;;0.42;100.00
43701;BME280;58809;47.984;7.964;2023-01-26T10:34:37;97477.47;;;0.52;100.00
43701;BME280;58809;47.984;7.964;2023-01-26T10:37:41;97479.09;;;0.66;100.00
43701;BME280;58809;47.984;7.964;2023-01-26T10:40:43;97479.44;;;0.73;100.00
43701;BME280;58809;47.984;7.964;2023-01-26T10:47:04;97476.41;;;0.79;100.00
43701;BME280;58809;47.984;7.964;2023-01-26T10:50:22;97473.34;;;0.85;100.00
43701;BME280;58809;47.984;7.964;2023-01-26T10:53:25;97476.22;;;0.93;100.00
43701;BME280;58809;47.984;7.964;2023-01-26T10:56:30;97468.72;;;0.77;100.00
43701;BME280;58809;47.984;7.964;2023-01-26T11:02:35;97457.72;;;0.50;100.00
43701;BME280;58809;47.984;7.964;2023-01-26T11:05:37;97455.44;;;0.45;100.00
43701;BME280;58809;47.984;7.964;2023-01-26T11:08:39;97455.47;;;0.56;100.00
43701;BME280;58809;47.984;7.964;2023-01-26T11:11:53;97453.13;;;0.53;100.00
43701;BME280;58809;47.984;7.964;2023-01-26T11:15:03;97443.66;;;0.64;100.00
43701;BME280;58809;47.984;7.964;2023-01-26T11:18:14;97446.38;;;0.62;100.00
43701;BME280;58809;47.984;7.964;2023-01-26T11:21:21;97442.38;;;0.69;100.00
43701;BME280;58809;47.984;7.964;2023-01-26T11:47:47;97426.50;;;0.61;100.00
43701;BME280;58809;47.984;7.964;2023-01-26T12:00:59;97423.25;;;0.46;100.00
43701;BME280;58809;47.984;7.964;2023-01-26T12:04:02;97416.53;;;0.55;100.00
43701;BME280;58809;47.984;7.964;2023-01-26T12:07:13;97415.28;;;0.61;100.00
43701;BME280;58809;47.984;7.964;2023-01-26T12:10:17;97405.56;;;0.63;100.00
43701;BME280;58809;47.984;7.964;2023-01-26T12:16:50;97400.34;;;0.63;100.00
43701;BME280;58809;47.984;7.964;2023-01-26T12:23:30;97390.81;;;0.86;100.00
43701;BME280;58809;47.984;7.964;2023-01-26T12:26:44;97388.31;;;0.84;100.00
43701;BME280;58809;47.984;7.964;2023-01-26T12:33:09;97379.91;;;0.81;100.00
43701;BME280;58809;47.984;7.964;2023-01-26T12:39:53;97372.69;;;0.84;100.00
43701;BME280;58809;47.984;7.964;2023-01-26T12:43:04;97377.69;;;0.99;99.91
43701;BME280;58809;47.984;7.964;2023-01-26T12:46:12;97363.72;;;0.88;97.56
43701;BME280;58809;47.984;7.964;2023-01-26T12:49:34;97370.66;;;0.76;98.11
43701;BME280;58809;47.984;7.964;2023-01-26T12:52:53;97350.38;;;0.57;98.23
43701;BME280;58809;47.984;7.964;2023-01-26T12:56:08;97366.50;;;0.63;99.34
43701;BME280;58809;47.984;7.964;2023-01-26T12:59:18;97367.81;;;0.68;99.10
43701;BME280;58809;47.984;7.964;2023-01-26T13:02:45;97358.91;;;0.60;98.64
43701;BME280;58809;47.984;7.964;2023-01-26T13:05:59;97353.47;;;0.63;99.71
43701;BME280;58809;47.984;7.964;2023-01-26T13:09:21;97356.41;;;0.58;98.98
43701;BME280;58809;47.984;7.964;2023-01-26T13:12:52;97360.09;;;0.55;99.96
43701;BME280;58809;47.984;7.964;2023-01-26T13:19:51;97357.31;;;0.81;97.04
43701;BME280;58809;47.984;7.964;2023-01-26T13:22:54;97363.09;;;0.85;97.63
43701;BME280;58809;47.984;7.964;2023-01-26T13:35:28;97358.31;;;0.56;96.67
43701;BME280;58809;47.984;7.964;2023-01-26T13:38:39;97357.91;;;0.49;97.08
43701;BME280;58809;47.984;7.964;2023-01-26T13:41:46;97363.13;;;0.49;97.23
43701;BME280;58809;47.984;7.964;2023-01-26T13:44:54;97358.88;;;0.48;96.78
43701;BME280;58809;47.984;7.964;2023-01-26T13:47:59;97358.06;;;0.48;97.41
43701;BME280;58809;47.984;7.964;2023-01-26T13:51:03;97357.47;;;0.44;96.76
43701;BME280;58809;47.984;7.964;2023-01-26T13:54:11;97359.22;;;0.44;96.89
43701;BME280;58809;47.984;7.964;2023-01-26T13:57:27;97361.00;;;0.43;96.81
43701;BME280;58809;47.984;7.964;2023-01-26T14:00:29;97364.69;;;0.52;97.27
43701;BME280;58809;47.984;7.964;2023-01-26T14:03:31;97366.63;;;0.26;96.85
43701;BME280;58809;47.984;7.964;2023-01-26T14:06:37;97367.63;;;0.12;98.59
43701;BME280;58809;47.984;7.964;2023-01-26T14:09:47;97370.72;;;0.17;99.60
43701;BME280;58809;47.984;7.964;2023-01-26T14:12:51;97380.97;;;0.31;99.41
43701;BME280;58809;47.984;7.964;2023-01-26T14:15:59;97384.22;;;0.46;99.10
43701;BME280;58809;47.984;7.964;2023-01-26T14:22:12;97376.91;;;0.63;97.49
43701;BME280;58809;47.984;7.964;2023-01-26T14:25:18;97379.50;;;0.51;97.01
43701;BME280;58809;47.984;7.964;2023-01-26T14:28:22;97384.91;;;0.48;96.65
43701;BME280;58809;47.984;7.964;2023-01-26T14:31:27;97375.41;;;0.36;97.24
43701;BME280;58809;47.984;7.964;2023-01-26T14:34:30;97379.66;;;0.26;97.66
43701;BME280;58809;47.984;7.964;2023-01-26T14:37:31;97380.28;;;0.16;99.28
43701;BME280;58809;47.984;7.964;2023-01-26T14:40:33;97380.34;;;0.04;99.32
43701;BME280;58809;47.984;7.964;2023-01-26T14:43:35;97379.41;;;0.05;99.91
43701;BME280;58809;47.984;7.964;2023-01-26T14:52:52;97391.34;;;-0.17;100.00
43701;BME280;58809;47.984;7.964;2023-01-26T14:55:54;97389.31;;;-0.25;100.00
43701;BME280;58809;47.984;7.964;2023-01-26T14:58:56;97403.34;;;-0.14;100.00
43701;BME280;58809;47.984;7.964;2023-01-26T15:02:17;97392.69;;;-0.11;100.00
43701;BME280;58809;47.984;7.964;2023-01-26T15:05:31;97391.31;;;-0.04;100.00
43701;BME280;58809;47.984;7.964;2023-01-26T15:08:34;97393.81;;;-0.03;100.00
43701;BME280;58809;47.984;7.964;2023-01-26T15:11:38;97391.97;;;0.11;99.81
43701;BME280;58809;47.984;7.964;2023-01-26T15:14:59;97404.66;;;0.15;99.54
43701;BME280;58809;47.984;7.964;2023-01-26T15:18:20;97397.47;;;0.19;98.47
43701;BME280;58809;47.984;7.964;2023-01-26T15:21:29;97396.28;;;0.23;97.89
43701;BME280;58809;47.984;7.964;2023-01-26T15:24:33;97395.78;;;0.18;97.18
43701;BME280;58809;47.984;7.964;2023-01-26T15:27:35;97398.28;;;0.19;97.31
43701;BME280;58809;47.984;7.964;2023-01-26T15:30:37;97395.47;;;0.23;96.87
43701;BME280;58809;47.984;7.964;2023-01-26T15:33:47;97397.91;;;0.13;96.49
43701;BME280;58809;47.984;7.964;2023-01-26T15:36:52;97400.34;;;0.03;96.93
43701;BME280;58809;47.984;7.964;2023-01-26T15:39:53;97393.03;;;-0.16;97.53
43701;BME280;58809;47.984;7.964;2023-01-26T15:43:24;97396.63;;;-0.06;99.12
43701;BME280;58809;47.984;7.964;2023-01-26T15:46:26;97395.84;;;0.05;98.31
43701;BME280;58809;47.984;7.964;2023-01-26T15:49:28;97398.03;;;0.11;98.03
43701;BME280;58809;47.984;7.964;2023-01-26T15:52:29;97399.16;;;0.07;97.55
43701;BME280;58809;47.984;7.964;2023-01-26T15:55:32;97394.22;;;0.04;97.71
43701;BME280;58809;47.984;7.964;2023-01-26T15:58:34;97396.13;;;0.13;98.16
43701;BME280;58809;47.984;7.964;2023-01-26T16:01:37;97397.19;;;0.11;97.20
43701;BME280;58809;47.984;7.964;2023-01-26T16:04:39;97405.22;;;0.08;97.39
43701;BME280;58809;47.984;7.964;2023-01-26T16:07:41;97406.91;;;-0.04;98.17
43701;BME280;58809;47.984;7.964;2023-01-26T16:10:43;97404.41;;;-0.06;100.00
43701;BME280;58809;47.984;7.964;2023-01-26T16:13:45;97403.50;;;-0.05;100.00
43701;BME280;58809;47.984;7.964;2023-01-26T16:17:15;97406.53;;;-0.11;98.95
43701;BME280;58809;47.984;7.964;2023-01-26T16:20:18;97415.22;;;-0.23;100.00
43701;BME280;58809;47.984;7.964;2023-01-26T16:23:27;97409.91;;;-0.22;99.86
43701;BME280;58809;47.984;7.964;2023-01-26T16:26:29;97415.09;;;-0.22;100.00
43701;BME280;58809;47.984;7.964;2023-01-26T16:29:32;97414.69;;;-0.28;100.00
43701;BME280;58809;47.984;7.964;2023-01-26T16:32:33;97415.97;;;-0.34;100.00
43701;BME280;58809;47.984;7.964;2023-01-26T16:35:35;97421.22;;;-0.23;100.00
43701;BME280;58809;47.984;7.964;2023-01-26T16:38:38;97418.31;;;-0.18;100.00
43701;BME280;58809;47.984;7.964;2023-01-26T16:41:40;97415.00;;;-0.20;100.00
43701;BME280;58809;47.984;7.964;2023-01-26T16:44:41;97413.16;;;-0.31;100.00
43701;BME280;58809;47.984;7.964;2023-01-26T16:47:43;97418.28;;;-0.42;100.00
43701;BME280;58809;47.984;7.964;2023-01-26T16:50:45;97418.47;;;-0.45;100.00
43701;BME280;58809;47.984;7.964;2023-01-26T16:53:51;97417.88;;;-0.49;100.00
43701;BME280;58809;47.984;7.964;2023-01-26T16:56:52;97415.56;;;-0.53;100.00
43701;BME280;58809;47.984;7.964;2023-01-26T16:59:54;97423.88;;;-0.48;100.00
43701;BME280;58809;47.984;7.964;2023-01-26T17:02:55;97424.06;;;-0.39;100.00
43701;BME280;58809;47.984;7.964;2023-01-26T17:05:57;97426.81;;;-0.40;100.00
43701;BME280;58809;47.984;7.964;2023-01-26T17:08:59;97419.94;;;-0.54;100.00
43701;BME280;58809;47.984;7.964;2023-01-26T17:12:00;97426.59;;;-0.50;100.00
43701;BME280;58809;47.984;7.964;2023-01-26T17:15:08;97431.28;;;-0.42;100.00
43701;BME280;58809;47.984;7.964;2023-01-26T17:18:11;97413.38;;;-0.47;100.00
43701;BME280;58809;47.984;7.964;2023-01-26T17:21:15;97418.28;;;-0.42;100.00
43701;BME280;58809;47.984;7.964;2023-01-26T17:24:17;97419.66;;;-0.49;100.00
43701;BME280;58809;47.984;7.964;2023-01-26T17:27:18;97420.97;;;-0.44;100.00
43701;BME280;58809;47.984;7.964;2023-01-26T17:30:20;97427.63;;;-0.40;100.00
43701;BME280;58809;47.984;7.964;2023-01-26T17:33:22;97422.63;;;-0.43;100.00
43701;BME280;58809;47.984;7.964;2023-01-26T17:36:23;97426.81;;;-0.53;100.00
43701;BME280;58809;47.984;7.964;2023-01-26T17:39:25;97431.81;;;-0.63;100.00
43701;BME280;58809;47.984;7.964;2023-01-26T17:42:27;97427.56;;;-0.64;100.00
43701;BME280;58809;47.984;7.964;2023-01-26T17:45:30;97432.31;;;-0.57;100.00
43701;BME280;58809;47.984;7.964;2023-01-26T17:48:33;97434.72;;;-0.54;100.00